Time;durP1;ratioP1;P1;durP2;ratioP2;P2;SDS_P1;SDS_P2;PMS_P1;PMS_P2;Temp;Humidity;BMP_temperature;BMP_pressure;BME280_temperature;BME280_humidity;BME280_pressure;Samples;Min_cycle;Max_cycle;Signal;HPM_P1;HPM_P2
2021/05/27 00:02:02;;;;;;;1.92;1.08;;;21.60;60.10;;;;;;5052177;28;20079;-34
2021/05/27 00:04:28;;;;;;;1.13;0.95;;;21.60;59.90;;;;;;5050039;28;20029;-34
2021/05/27 00:06:54;;;;;;;2.22;1.15;;;21.70;60.00;;;;;;5049423;28;20532;-34
2021/05/27 00:09:19;;;;;;;2.58;1.20;;;21.60;60.00;;;;;;5054055;28;20032;-34
2021/05/27 00:11:45;;;;;;;1.65;0.90;;;21.60;60.00;;;;;;5056637;28;20024;-34
2021/05/27 00:14:10;;;;;;;1.63;1.05;;;21.60;59.90;;;;;;5056178;28;20025;-33
2021/05/27 00:16:36;;;;;;;3.33;0.93;;;21.60;59.90;;;;;;5052069;28;20390;-34
2021/05/27 00:19:02;;;;;;;1.45;1.00;;;21.60;59.80;;;;;;5048141;28;20147;-34
2021/05/27 00:21:27;;;;;;;1.67;0.82;;;21.60;59.70;;;;;;5054614;28;20407;-34
2021/05/27 00:23:53;;;;;;;2.20;0.98;;;21.60;59.80;;;;;;5061259;28;20040;-35
2021/05/27 00:26:18;;;;;;;1.20;1.10;;;21.60;59.60;;;;;;5059174;28;20024;-34
2021/05/27 00:28:44;;;;;;;0.90;0.90;;;21.60;59.50;;;;;;5052109;28;20033;-34
2021/05/27 00:31:10;;;;;;;0.70;0.70;;;21.70;59.50;;;;;;5065618;28;20043;-34
2021/05/27 00:33:36;;;;;;;1.45;0.93;;;21.60;59.40;;;;;;5056312;28;20029;-34
2021/05/27 00:36:01;;;;;;;1.02;0.95;;;21.60;59.50;;;;;;5062246;28;20029;-33
2021/05/27 00:38:27;;;;;;;1.13;0.90;;;21.60;59.40;;;;;;5062698;28;20028;-34
2021/05/27 00:40:53;;;;;;;0.80;0.80;;;21.60;60.10;;;;;;5060023;28;20025;-34
2021/05/27 00:43:18;;;;;;;1.05;1.00;;;21.60;59.30;;;;;;5031969;28;20026;-33
2021/05/27 00:45:44;;;;;;;1.10;0.65;;;21.60;59.30;;;;;;5054299;28;20657;-33
2021/05/27 00:48:56;;;;;;;0.70;0.70;;;21.60;59.30;;;;;;5056773;28;20105;-34
2021/05/27 00:50:55;;;;;;;0.93;0.82;;;21.60;59.30;;;;;;5055081;28;20033;-34
2021/05/27 00:53:21;;;;;;;1.17;0.82;;;21.60;59.30;;;;;;5060254;28;20027;-33
2021/05/27 00:55:47;;;;;;;0.75;0.75;;;21.60;59.10;;;;;;5065541;28;20017;-35
2021/05/27 00:58:12;;;;;;;1.70;1.00;;;21.60;59.10;;;;;;5033437;28;20816;-34
2021/05/27 01:00:38;;;;;;;1.38;0.70;;;21.60;59.10;;;;;;5047068;28;20037;-35
2021/05/27 01:03:04;;;;;;;2.25;0.80;;;21.60;59.00;;;;;;5059374;28;20623;-34
2021/05/27 01:05:33;;;;;;;1.15;0.90;;;21.60;59.10;;;;;;5054317;28;20391;-28
2021/05/27 01:07:59;;;;;;;0.90;0.90;;;21.60;59.10;;;;;;5052338;28;20108;-34
2021/05/27 01:10:24;;;;;;;0.70;0.70;;;21.60;59.00;;;;;;5051725;28;20100;-34
2021/05/27 01:12:50;;;;;;;0.70;0.70;;;21.60;59.00;;;;;;5064139;28;20023;-34
2021/05/27 01:15:32;;;;;;;0.70;0.60;;;21.60;59.00;;;;;;5055472;28;20036;-34
2021/05/27 01:18:11;;;;;;;0.75;0.75;;;21.60;58.90;;;;;;5036704;28;20024;-34
2021/05/27 01:20:37;;;;;;;0.80;0.80;;;21.60;59.00;;;;;;5055075;28;20063;-34
2021/05/27 01:23:03;;;;;;;1.35;0.70;;;21.50;59.00;;;;;;5050195;28;20045;-35
2021/05/27 01:25:29;;;;;;;0.60;0.60;;;21.50;59.10;;;;;;5053009;28;20035;-35
2021/05/27 01:27:54;;;;;;;0.80;0.80;;;21.50;59.10;;;;;;5051842;28;20085;-34
2021/05/27 01:30:20;;;;;;;0.80;0.80;;;21.50;59.00;;;;;;5064470;28;20487;-34
2021/05/27 01:32:46;;;;;;;0.70;0.70;;;21.50;58.90;;;;;;5053656;28;20032;-34
2021/05/27 01:35:17;;;;;;;0.85;0.82;;;21.50;59.00;;;;;;5050768;28;20021;-34
2021/05/27 01:37:43;;;;;;;0.65;0.55;;;21.50;59.00;;;;;;5053801;28;20502;-34
2021/05/27 01:40:09;;;;;;;0.60;0.60;;;21.50;59.00;;;;;;5049852;28;20021;-34
2021/05/27 01:42:35;;;;;;;2.22;0.50;;;21.50;59.00;;;;;;5062629;28;20102;-34
2021/05/27 01:45:00;;;;;;;0.63;0.60;;;21.50;59.00;;;;;;5053898;28;20483;-35
2021/05/27 01:47:26;;;;;;;1.00;0.60;;;21.50;59.00;;;;;;5054163;28;20423;-34
2021/05/27 01:49:51;;;;;;;0.60;0.60;;;21.50;59.00;;;;;;5054518;28;20031;-34
2021/05/27 01:52:17;;;;;;;1.55;0.90;;;21.50;59.00;;;;;;5045657;28;20021;-34
2021/05/27 01:54:43;;;;;;;0.57;0.57;;;21.50;59.60;;;;;;5044860;28;20607;-35
2021/05/27 01:57:08;;;;;;;0.85;0.60;;;21.50;59.00;;;;;;5045886;28;20098;-34
2021/05/27 01:59:34;;;;;;;0.50;0.50;;;21.50;59.00;;;;;;5046036;28;20499;-34
2021/05/27 02:01:59;;;;;;;0.60;0.60;;;21.50;58.90;;;;;;5034991;28;20036;-34
2021/05/27 02:04:25;;;;;;;0.70;0.60;;;21.40;58.80;;;;;;5051363;28;20580;-33
2021/05/27 02:06:50;;;;;;;0.70;0.70;;;21.40;58.90;;;;;;5034412;28;20560;-34
2021/05/27 02:09:16;;;;;;;0.60;0.40;;;21.50;58.80;;;;;;5055365;28;20032;-34
2021/05/27 02:11:43;;;;;;;1.73;0.60;;;21.50;59.50;;;;;;5035556;28;20083;-34
2021/05/27 02:14:10;;;;;;;0.80;0.55;;;21.50;58.90;;;;;;5053283;28;20044;-34
2021/05/27 02:16:36;;;;;;;0.40;0.40;;;21.50;58.90;;;;;;5052405;28;20541;-34
2021/05/27 02:19:02;;;;;;;0.70;0.60;;;21.50;58.80;;;;;;5050374;28;20029;-34
2021/05/27 02:21:28;;;;;;;0.57;0.43;;;21.50;58.70;;;;;;5055213;28;20051;-34
2021/05/27 02:23:54;;;;;;;0.50;0.50;;;21.50;58.80;;;;;;5050456;28;20021;-34
2021/05/27 02:26:20;;;;;;;0.50;0.50;;;21.50;58.80;;;;;;5053825;28;20111;-34
2021/05/27 02:28:46;;;;;;;2.50;0.60;;;21.50;58.80;;;;;;5052343;28;20105;-35
2021/05/27 02:31:12;;;;;;;0.47;0.47;;;21.50;58.80;;;;;;5040992;28;20108;-34
2021/05/27 02:33:37;;;;;;;0.65;0.65;;;21.40;58.80;;;;;;5054508;28;20414;-34
2021/05/27 02:36:03;;;;;;;1.10;0.57;;;21.40;58.80;;;;;;5060922;28;20122;-34
2021/05/27 02:38:29;;;;;;;1.08;0.52;;;21.40;58.70;;;;;;5057501;28;20033;-35
2021/05/27 02:40:55;;;;;;;0.73;0.52;;;21.40;58.90;;;;;;5053141;28;20042;-35
2021/05/27 02:43:20;;;;;;;0.60;0.60;;;21.40;58.80;;;;;;5049895;28;20033;-34
2021/05/27 02:45:46;;;;;;;0.40;0.40;;;21.40;59.00;;;;;;5051507;28;20028;-34
2021/05/27 02:48:11;;;;;;;0.45;0.45;;;21.40;59.00;;;;;;5054768;28;20037;-34
2021/05/27 02:50:37;;;;;;;0.50;0.40;;;21.40;58.90;;;;;;5052558;28;20027;-34
2021/05/27 02:53:02;;;;;;;0.50;0.47;;;21.40;58.90;;;;;;5052504;28;20032;-35
2021/05/27 02:55:28;;;;;;;0.47;0.47;;;21.40;59.00;;;;;;5051214;28;20044;-34
2021/05/27 02:57:54;;;;;;;0.40;0.40;;;21.40;58.90;;;;;;5050372;28;20079;-34
2021/05/27 03:00:20;;;;;;;0.63;0.50;;;21.40;58.90;;;;;;5054289;28;20056;-34
2021/05/27 03:02:45;;;;;;;0.40;0.40;;;21.40;59.50;;;;;;5053159;28;20044;-35
2021/05/27 03:05:11;;;;;;;0.68;0.40;;;21.40;58.70;;;;;;5051322;28;20017;-35
2021/05/27 03:07:36;;;;;;;0.38;0.38;;;21.40;58.80;;;;;;5052664;28;20020;-34
2021/05/27 03:10:03;;;;;;;0.52;0.50;;;21.40;58.90;;;;;;5048976;28;20052;-35
2021/05/27 03:12:28;;;;;;;0.60;0.60;;;21.40;58.90;;;;;;5062444;28;20118;-35
2021/05/27 03:14:54;;;;;;;0.50;0.40;;;21.40;59.00;;;;;;5052463;28;20064;-35
2021/05/27 03:17:19;;;;;;;0.73;0.40;;;21.40;58.90;;;;;;5052845;28;20033;-35
2021/05/27 03:19:45;;;;;;;0.40;0.40;;;21.40;58.90;;;;;;5052891;28;20020;-32
2021/05/27 03:22:10;;;;;;;0.40;0.40;;;21.30;58.90;;;;;;5047825;28;20040;-35
2021/05/27 03:24:36;;;;;;;1.27;0.40;;;21.30;58.80;;;;;;5048185;28;20104;-34
2021/05/27 03:27:02;;;;;;;0.30;0.30;;;21.40;58.80;;;;;;5053153;28;20039;-34
2021/05/27 03:29:27;;;;;;;0.40;0.40;;;21.40;58.80;;;;;;5051352;28;20495;-34
2021/05/27 03:31:53;;;;;;;0.60;0.50;;;21.40;58.80;;;;;;5052445;28;20063;-34
2021/05/27 03:34:18;;;;;;;0.40;0.38;;;21.40;59.60;;;;;;5049579;28;20096;-34
2021/05/27 03:36:44;;;;;;;0.40;0.40;;;21.40;58.90;;;;;;5051657;28;20040;-35
2021/05/27 03:39:09;;;;;;;0.38;0.35;;;21.40;58.90;;;;;;5053606;28;20017;-34
2021/05/27 03:41:35;;;;;;;0.45;0.32;;;21.30;58.80;;;;;;5057830;28;20036;-34
2021/05/27 03:44:00;;;;;;;0.40;0.40;;;21.30;58.90;;;;;;5052802;28;20017;-34
2021/05/27 03:46:26;;;;;;;0.98;0.47;;;21.30;58.90;;;;;;5050433;28;20032;-35
2021/05/27 03:48:52;;;;;;;0.98;0.40;;;21.30;58.80;;;;;;5050137;28;20386;-34
2021/05/27 03:51:17;;;;;;;0.52;0.52;;;21.30;58.80;;;;;;5056567;28;20029;-34
2021/05/27 03:53:43;;;;;;;0.40;0.40;;;21.30;58.80;;;;;;5052283;28;20083;-38
2021/05/27 03:56:09;;;;;;;0.47;0.47;;;21.30;58.80;;;;;;5052533;28;20037;-36
2021/05/27 04:01:18;;;;;;;0.70;0.40;;;21.30;58.70;;;;;;5037999;28;20104;-36
2021/05/27 04:09:12;;;;;;;;;;;21.30;58.70;;;;;;5057521;28;20058;-33
2021/05/27 04:11:38;;;;;;;0.30;0.30;;;21.30;58.70;;;;;;5055431;28;19995;-34
2021/05/27 04:14:03;;;;;;;0.40;0.40;;;21.30;58.60;;;;;;5053845;28;20024;-34
2021/05/27 04:16:29;;;;;;;0.45;0.38;;;21.30;58.60;;;;;;5067434;28;20418;-34
2021/05/27 04:18:55;;;;;;;0.50;0.50;;;21.30;58.50;;;;;;5034964;28;20052;-34
2021/05/27 04:21:20;;;;;;;0.40;0.35;;;21.30;58.60;;;;;;5039869;28;20052;-34
2021/05/27 04:23:46;;;;;;;0.40;0.40;;;21.30;58.50;;;;;;5051699;28;20055;-35
2021/05/27 04:26:13;;;;;;;0.40;0.40;;;21.30;58.60;;;;;;5055813;28;20108;-34
2021/05/27 04:28:39;;;;;;;0.40;0.40;;;21.30;58.60;;;;;;5052075;28;20044;-35
2021/05/27 04:31:11;;;;;;;0.50;0.30;;;21.30;58.60;;;;;;5060691;28;20029;-35
2021/05/27 04:33:44;;;;;;;0.40;0.38;;;21.30;58.50;;;;;;5050258;28;20025;-34
2021/05/27 04:36:14;;;;;;;0.28;0.20;;;21.30;58.60;;;;;;5056640;28;20121;-34
2021/05/27 04:38:40;;;;;;;0.30;0.30;;;21.30;58.60;;;;;;5055543;28;20074;-36
2021/05/27 04:41:05;;;;;;;0.90;0.30;;;21.30;58.60;;;;;;5054355;28;20028;-34
2021/05/27 04:43:31;;;;;;;0.40;0.40;;;21.30;58.50;;;;;;5060073;28;20720;-35
2021/05/27 04:45:57;;;;;;;0.40;0.40;;;21.30;58.50;;;;;;5062125;28;20021;-35
2021/05/27 04:48:23;;;;;;;0.50;0.50;;;21.30;58.50;;;;;;5038895;28;20049;-34
2021/05/27 04:50:49;;;;;;;0.45;0.45;;;21.30;58.50;;;;;;5055203;28;20553;-36
2021/05/27 04:53:16;;;;;;;0.28;0.28;;;21.30;58.40;;;;;;5054694;28;20100;-33
2021/05/27 04:55:41;;;;;;;1.90;0.50;;;21.30;58.40;;;;;;5047924;28;20029;-35
2021/05/27 04:58:07;;;;;;;2.20;0.50;;;21.30;59.80;;;;;;5046269;28;20104;-36
2021/05/27 05:00:33;;;;;;;1.50;0.68;;;21.20;60.90;;;;;;5048729;28;20064;-34
2021/05/27 05:02:58;;;;;;;0.75;0.40;;;21.20;60.30;;;;;;5046820;28;20045;-35
2021/05/27 05:05:25;;;;;;;1.33;0.50;;;21.20;59.70;;;;;;5047991;28;20037;-34
2021/05/27 05:07:50;;;;;;;0.70;0.60;;;21.10;60.10;;;;;;5048121;28;20070;-35
2021/05/27 05:10:17;;;;;;;3.17;0.85;;;21.10;60.80;;;;;;5049846;28;20025;-33
2021/05/27 05:12:46;;;;;;;2.65;0.60;;;21.10;60.10;;;;;;5054258;28;20037;-33
2021/05/27 05:15:38;;;;;;;4.38;0.55;;;21.10;60.00;;;;;;5052597;28;20021;-33
2021/05/27 05:18:06;;;;;;;2.00;0.60;;;21.10;59.80;;;;;;5050737;28;20061;-36
2021/05/27 05:20:42;;;;;;;2.60;0.60;;;21.10;60.10;;;;;;5051156;28;20498;-36
2021/05/27 05:23:08;;;;;;;4.32;0.63;;;21.10;60.40;;;;;;5052819;28;20036;-35
2021/05/27 05:25:35;;;;;;;2.33;0.60;;;20.90;60.20;;;;;;5052032;28;20044;-34
2021/05/27 05:28:01;;;;;;;1.23;0.60;;;20.90;60.40;;;;;;5054938;28;20037;-35
2021/05/27 05:30:27;;;;;;;1.73;0.70;;;21.00;60.70;;;;;;5056689;28;20445;-33
2021/05/27 05:32:53;;;;;;;1.90;0.43;;;20.90;60.60;;;;;;5063893;28;20040;-34
2021/05/27 05:35:18;;;;;;;1.45;0.80;;;20.90;61.10;;;;;;5061008;28;20021;-34
2021/05/27 05:37:44;;;;;;;1.92;0.82;;;20.90;60.60;;;;;;5054462;28;20077;-33
2021/05/27 05:40:11;;;;;;;5.82;0.93;;;20.90;61.90;;;;;;5065611;28;20553;-33
2021/05/27 05:42:37;;;;;;;3.38;0.70;;;21.10;62.50;;;;;;5056041;28;20033;-33
2021/05/27 05:45:04;;;;;;;1.00;0.60;;;21.00;61.40;;;;;;5050383;28;20116;-33
2021/05/27 05:47:29;;;;;;;4.13;0.73;;;21.00;62.40;;;;;;5052824;28;20421;-34
2021/05/27 05:49:55;;;;;;;2.35;0.60;;;21.00;62.60;;;;;;5054546;28;20021;-34
2021/05/27 05:52:20;;;;;;;2.65;0.82;;;20.90;63.10;;;;;;5051812;28;20029;-37
2021/05/27 05:54:46;;;;;;;1.15;0.63;;;20.90;63.70;;;;;;5053017;28;20108;-37
2021/05/27 05:57:12;;;;;;;1.20;0.80;;;21.10;63.40;;;;;;5065730;28;20028;-33
2021/05/27 05:59:37;;;;;;;3.10;0.70;;;21.10;62.80;;;;;;5057752;28;20041;-33
2021/05/27 06:02:04;;;;;;;2.00;0.70;;;21.20;62.50;;;;;;5053853;28;20688;-33
2021/05/27 06:04:30;;;;;;;2.40;0.88;;;21.30;62.20;;;;;;5052612;28;20159;-34
2021/05/27 06:06:56;;;;;;;1.67;0.63;;;21.30;62.20;;;;;;5051455;28;20021;-33
2021/05/27 06:09:21;;;;;;;1.52;0.60;;;21.30;62.30;;;;;;5054672;28;20029;-34
2021/05/27 06:11:47;;;;;;;1.17;0.70;;;21.30;61.70;;;;;;5054113;28;20091;-33
2021/05/27 06:14:13;;;;;;;1.30;0.57;;;21.30;61.70;;;;;;5053781;28;20033;-33
2021/05/27 06:16:38;;;;;;;2.60;0.70;;;21.20;60.80;;;;;;5053369;28;20509;-33
2021/05/27 06:19:04;;;;;;;2.22;0.80;;;21.10;60.50;;;;;;5050083;28;20025;-33
2021/05/27 06:21:29;;;;;;;2.10;0.90;;;20.80;60.10;;;;;;5034112;28;20446;-34
2021/05/27 06:23:55;;;;;;;5.25;0.95;;;20.70;60.80;;;;;;5051889;28;20033;-33
2021/05/27 06:26:20;;;;;;;0.70;0.70;;;20.60;61.20;;;;;;5053345;28;20032;-35
2021/05/27 06:28:46;;;;;;;0.80;0.80;;;20.60;61.10;;;;;;5053635;28;20371;-34
2021/05/27 06:31:12;;;;;;;1.40;0.80;;;20.50;60.90;;;;;;5047507;28;20013;-35
2021/05/27 06:33:37;;;;;;;0.90;0.77;;;20.50;60.80;;;;;;5050451;28;20035;-35
2021/05/27 06:36:03;;;;;;;2.47;0.80;;;20.50;60.30;;;;;;5049547;28;20027;-34
2021/05/27 06:38:29;;;;;;;1.50;0.80;;;20.50;59.80;;;;;;5050231;28;20116;-34
2021/05/27 06:40:55;;;;;;;0.82;0.75;;;20.50;59.90;;;;;;5050471;28;20101;-34
2021/05/27 06:43:20;;;;;;;1.80;0.82;;;20.50;59.60;;;;;;5031428;28;20037;-34
2021/05/27 06:45:46;;;;;;;1.58;0.70;;;20.50;59.60;;;;;;5049639;28;20553;-34
2021/05/27 06:48:13;;;;;;;1.92;0.60;;;20.40;59.30;;;;;;5052334;28;20025;-34
2021/05/27 06:50:40;;;;;;;0.80;0.50;;;20.40;59.20;;;;;;5050933;28;20087;-38
2021/05/27 06:53:07;;;;;;;0.90;0.60;;;20.50;60.30;;;;;;5051064;28;20024;-33
2021/05/27 06:55:33;;;;;;;0.95;0.50;;;20.50;59.10;;;;;;5049976;28;20035;-36
2021/05/27 06:57:59;;;;;;;1.05;0.50;;;20.40;58.80;;;;;;5049721;28;20017;-39
2021/05/27 07:00:25;;;;;;;0.98;0.68;;;20.40;58.90;;;;;;5051939;28;20057;-35
2021/05/27 07:02:53;;;;;;;1.42;0.50;;;20.50;59.10;;;;;;5052108;28;20037;-35
2021/05/27 07:05:20;;;;;;;1.88;1.00;;;20.50;59.20;;;;;;5049668;28;20053;-34
2021/05/27 07:07:46;;;;;;;1.38;0.70;;;20.50;59.10;;;;;;5049008;28;20040;-33
2021/05/27 07:10:15;;;;;;;0.68;0.40;;;20.50;59.10;;;;;;5050595;28;20043;-35
2021/05/27 07:12:48;;;;;;;0.95;0.50;;;20.60;59.60;;;;;;5034204;28;20029;-34
2021/05/27 07:15:14;;;;;;;6.85;0.80;;;20.50;60.70;;;;;;5055182;28;20499;-35
2021/05/27 07:17:40;;;;;;;0.60;0.50;;;20.50;60.70;;;;;;5054012;28;20496;-33
2021/05/27 07:20:07;;;;;;;0.50;0.50;;;20.50;60.40;;;;;;5053997;28;20106;-35
2021/05/27 07:22:32;;;;;;;0.82;0.63;;;20.50;60.70;;;;;;5043111;28;20507;-35
2021/05/27 07:24:58;;;;;;;0.90;0.60;;;20.50;60.60;;;;;;5050250;28;20040;-34
2021/05/27 07:27:23;;;;;;;1.77;0.63;;;20.50;60.80;;;;;;5064377;28;20505;-34
2021/05/27 07:29:49;;;;;;;1.38;0.55;;;20.50;61.20;;;;;;5055445;28;20029;-35
2021/05/27 07:32:15;;;;;;;0.50;0.45;;;20.50;61.50;;;;;;5051247;28;20073;-35
2021/05/27 07:34:43;;;;;;;0.40;0.40;;;20.50;61.80;;;;;;5047232;28;20025;-35
2021/05/27 07:37:09;;;;;;;0.60;0.47;;;20.50;61.70;;;;;;5053332;28;20019;-34
2021/05/27 07:39:34;;;;;;;0.90;0.50;;;20.40;62.00;;;;;;5052876;28;20029;-35
2021/05/27 07:42:01;;;;;;;1.02;0.55;;;20.40;62.10;;;;;;5051946;28;20576;-35
2021/05/27 07:44:27;;;;;;;0.95;0.60;;;20.40;61.90;;;;;;5051932;28;20395;-35
2021/05/27 07:46:52;;;;;;;0.70;0.50;;;20.50;62.20;;;;;;5052024;28;20520;-35
2021/05/27 07:49:18;;;;;;;0.73;0.50;;;20.40;62.90;;;;;;5052433;28;20075;-35
2021/05/27 07:51:44;;;;;;;1.80;0.47;;;20.40;62.50;;;;;;5052666;28;20029;-35
2021/05/27 07:54:09;;;;;;;0.52;0.50;;;20.50;62.80;;;;;;5054034;28;20053;-34
2021/05/27 07:56:35;;;;;;;2.45;0.47;;;20.40;62.60;;;;;;5053680;28;20104;-39
2021/05/27 07:59:00;;;;;;;0.75;0.50;;;20.50;63.60;;;;;;5053719;28;20562;-35
2021/05/27 08:01:26;;;;;;;0.60;0.50;;;20.50;63.60;;;;;;5052480;28;20040;-35
2021/05/27 08:03:52;;;;;;;0.60;0.40;;;20.50;63.10;;;;;;5051913;28;20060;-34
2021/05/27 08:06:17;;;;;;;1.20;0.70;;;20.40;62.30;;;;;;5055662;28;20037;-34
2021/05/27 08:08:43;;;;;;;0.60;0.50;;;20.60;61.90;;;;;;5054275;28;20025;-34
2021/05/27 08:11:08;;;;;;;0.50;0.47;;;20.70;61.90;;;;;;5054240;28;20386;-34
2021/05/27 08:13:34;;;;;;;0.60;0.50;;;20.70;61.70;;;;;;5052824;28;20028;-34
2021/05/27 08:15:59;;;;;;;0.93;0.50;;;20.70;61.50;;;;;;5052678;28;20108;-34
2021/05/27 08:18:26;;;;;;;0.40;0.40;;;20.70;61.40;;;;;;5055748;28;20480;-34
2021/05/27 08:20:51;;;;;;;0.57;0.55;;;20.70;61.60;;;;;;5053868;28;20083;-35
2021/05/27 08:23:17;;;;;;;0.40;0.40;;;20.70;62.50;;;;;;5053523;28;20036;-34
2021/05/27 08:25:43;;;;;;;0.82;0.40;;;20.70;61.30;;;;;;5053086;28;20395;-35
2021/05/27 08:28:09;;;;;;;2.50;0.50;;;20.70;61.60;;;;;;5052654;28;20117;-35
2021/05/27 08:30:34;;;;;;;0.68;0.50;;;20.60;61.70;;;;;;5039354;28;20100;-35
2021/05/27 08:33:00;;;;;;;0.60;0.40;;;20.60;61.30;;;;;;5055680;28;20029;-35
2021/05/27 08:35:26;;;;;;;0.38;0.38;;;20.70;61.50;;;;;;5056305;28;20064;-35
2021/05/27 08:37:51;;;;;;;1.30;0.50;;;20.70;62.10;;;;;;5055141;28;20044;-34
2021/05/27 08:40:17;;;;;;;0.57;0.50;;;20.70;62.10;;;;;;5052514;28;20032;-35
2021/05/27 08:42:43;;;;;;;0.82;0.60;;;20.70;61.50;;;;;;5056159;28;20037;-34
2021/05/27 08:45:09;;;;;;;0.40;0.35;;;20.70;61.10;;;;;;5058556;28;20021;-34
2021/05/27 08:47:35;;;;;;;0.40;0.30;;;20.70;60.70;;;;;;5056265;28;20115;-35
2021/05/27 08:50:01;;;;;;;0.63;0.50;;;20.70;62.60;;;;;;5056958;28;20167;-34
2021/05/27 08:52:27;;;;;;;0.50;0.40;;;20.70;61.40;;;;;;5050389;28;20151;-34
2021/05/27 08:54:52;;;;;;;0.60;0.40;;;20.80;61.10;;;;;;5054091;28;20444;-34
2021/05/27 08:57:18;;;;;;;0.63;0.50;;;20.80;60.80;;;;;;5054093;28;20025;-35
2021/05/27 08:59:43;;;;;;;0.60;0.60;;;20.90;60.70;;;;;;5053943;28;20397;-35
2021/05/27 09:02:10;;;;;;;0.40;0.40;;;20.90;60.80;;;;;;5049877;28;20063;-34
2021/05/27 09:04:36;;;;;;;0.30;0.30;;;20.80;61.30;;;;;;5049885;28;20040;-34
2021/05/27 09:07:02;;;;;;;1.67;0.32;;;20.80;61.40;;;;;;5050335;28;20025;-34
2021/05/27 09:09:46;;;;;;;1.25;0.30;;;20.80;61.20;;;;;;5052317;28;20070;-34
2021/05/27 09:12:33;;;;;;;0.73;0.30;;;20.80;61.00;;;;;;5051635;28;20514;-36
2021/05/27 09:15:18;;;;;;;0.50;0.50;;;20.80;61.20;;;;;;5051320;28;20037;-34
2021/05/27 09:17:52;;;;;;;0.40;0.40;;;20.80;60.70;;;;;;5048333;28;20121;-35
2021/05/27 09:20:20;;;;;;;0.38;0.30;;;20.80;61.90;;;;;;5050815;28;20675;-34
2021/05/27 09:22:45;;;;;;;0.32;0.30;;;20.80;60.90;;;;;;5050962;28;20087;-34
2021/05/27 09:25:27;;;;;;;1.20;0.40;;;20.90;61.10;;;;;;5050150;28;20017;-34
2021/05/27 09:27:53;;;;;;;0.38;0.38;;;20.80;60.70;;;;;;5047915;28;20037;-34
2021/05/27 09:30:20;;;;;;;1.35;0.40;;;20.80;60.60;;;;;;5055007;28;20086;-34
2021/05/27 09:32:46;;;;;;;0.30;0.30;;;20.90;60.80;;;;;;5051618;28;20051;-34
2021/05/27 09:35:12;;;;;;;0.70;0.50;;;20.90;60.70;;;;;;5053862;28;20028;-33
2021/05/27 09:37:38;;;;;;;0.32;0.30;;;21.00;60.50;;;;;;5052158;28;20032;-35
2021/05/27 09:40:06;;;;;;;0.40;0.40;;;21.00;60.40;;;;;;5051663;28;20100;-34
2021/05/27 09:42:48;;;;;;;1.10;0.38;;;21.10;60.10;;;;;;5054801;28;20572;-35
2021/05/27 09:45:14;;;;;;;0.40;0.40;;;21.10;59.80;;;;;;5033827;28;20013;-34
2021/05/27 09:47:40;;;;;;;0.43;0.28;;;21.20;59.40;;;;;;5052342;28;20043;-35
2021/05/27 09:50:06;;;;;;;0.50;0.30;;;21.20;59.40;;;;;;5054187;28;20502;-34
2021/05/27 09:52:46;;;;;;;0.55;0.35;;;21.20;59.50;;;;;;5050558;28;20025;-35
2021/05/27 09:55:15;;;;;;;0.30;0.30;;;21.30;59.50;;;;;;5049608;28;20056;-34
2021/05/27 09:57:42;;;;;;;0.40;0.40;;;21.40;59.50;;;;;;5054597;28;20025;-37
2021/05/27 10:00:25;;;;;;;0.82;0.30;;;21.40;59.10;;;;;;5029875;28;20049;-34
2021/05/27 10:02:50;;;;;;;0.30;0.30;;;21.40;59.20;;;;;;4993809;28;20696;-34
2021/05/27 10:05:16;;;;;;;0.52;0.40;;;21.50;59.40;;;;;;5019794;28;20032;-35
2021/05/27 10:07:46;;;;;;;0.40;0.40;;;21.50;58.90;;;;;;5022121;28;20030;-35
2021/05/27 10:10:22;;;;;;;1.10;0.30;;;21.50;59.30;;;;;;5024534;28;20034;-35
2021/05/27 10:12:51;;;;;;;0.40;0.40;;;21.60;59.20;;;;;;5012764;28;20069;-34
2021/05/27 10:15:18;;;;;;;0.50;0.50;;;21.70;59.10;;;;;;5014421;28;20034;-34
2021/05/27 10:17:47;;;;;;;0.40;0.40;;;21.60;58.90;;;;;;5013050;28;20467;-35
2021/05/27 10:20:14;;;;;;;1.05;0.40;;;21.60;59.10;;;;;;4993014;28;20444;-36
2021/05/27 10:22:40;;;;;;;0.45;0.45;;;21.70;59.10;;;;;;5013262;28;20045;-35
2021/05/27 10:25:08;;;;;;;0.60;0.50;;;21.70;58.70;;;;;;5009102;28;20095;-36
2021/05/27 10:27:34;;;;;;;1.00;0.52;;;21.60;59.10;;;;;;5018102;28;20064;-35
2021/05/27 10:30:00;;;;;;;1.30;0.70;;;21.60;59.00;;;;;;5017455;28;20017;-35
2021/05/27 10:32:26;;;;;;;0.57;0.40;;;21.70;59.00;;;;;;5015252;28;20084;-35
2021/05/27 10:34:52;;;;;;;1.35;0.50;;;21.80;58.70;;;;;;5013719;28;20139;-35
2021/05/27 10:37:34;;;;;;;0.40;0.40;;;21.80;58.70;;;;;;5023567;28;20488;-34
2021/05/27 10:40:00;;;;;;;0.60;0.40;;;21.80;58.50;;;;;;5009948;28;20026;-35
2021/05/27 10:42:55;;;;;;;1.88;0.35;;;21.70;58.60;;;;;;5012962;28;20034;-35
2021/05/27 10:45:20;;;;;;;0.40;0.40;;;21.80;58.50;;;;;;5018066;28;20034;-41
2021/05/27 10:48:14;;;;;;;0.60;0.40;;;21.90;58.40;;;;;;5016018;28;20551;-33
2021/05/27 10:51:35;;;;;;;3.50;0.50;;;21.90;58.20;;;;;;5013608;28;20033;-35
2021/05/27 10:53:38;;;;;;;1.38;0.32;;;22.00;58.10;;;;;;5006324;28;20042;-35
2021/05/27 10:56:06;;;;;;;1.27;0.40;;;22.00;58.10;;;;;;5008274;28;20691;-34
2021/05/27 10:58:53;;;;;;;0.40;0.30;;;22.00;58.10;;;;;;5024501;28;20033;-35
2021/05/27 11:01:19;;;;;;;0.40;0.25;;;22.00;58.10;;;;;;4996571;28;20034;-35
2021/05/27 11:03:49;;;;;;;0.55;0.40;;;22.00;57.90;;;;;;5012400;28;20034;-35
2021/05/27 11:06:21;;;;;;;0.50;0.40;;;22.10;58.00;;;;;;5014842;28;20547;-36
2021/05/27 11:08:47;;;;;;;0.35;0.30;;;22.00;58.10;;;;;;5012950;28;20038;-33
2021/05/27 11:11:41;;;;;;;0.30;0.30;;;22.00;58.80;;;;;;5010316;28;20022;-35
2021/05/27 11:14:19;;;;;;;0.88;0.30;;;21.90;58.20;;;;;;5009909;28;20040;-39
2021/05/27 11:17:04;;;;;;;0.57;0.25;;;21.90;58.30;;;;;;5011393;28;20499;-35
2021/05/27 11:22:29;;;;;;;0.80;0.45;;;21.90;58.30;;;;;;5009999;28;20519;-35
2021/05/27 11:25:07;;;;;;;0.22;0.22;;;21.90;58.10;;;;;;5011189;28;20156;-34
2021/05/27 11:27:33;;;;;;;0.55;0.35;;;21.90;58.30;;;;;;5013020;28;20026;-34
2021/05/27 11:30:17;;;;;;;0.95;0.30;;;21.90;58.20;;;;;;5010652;28;20029;-37
2021/05/27 11:32:43;;;;;;;0.30;0.30;;;21.90;58.10;;;;;;5011213;28;20112;-36
2021/05/27 11:35:09;;;;;;;0.50;0.40;;;21.90;58.20;;;;;;5009289;28;20124;-36
2021/05/27 11:37:35;;;;;;;1.02;0.40;;;21.80;58.50;;;;;;5008303;28;20041;-36
2021/05/27 11:40:01;;;;;;;0.30;0.30;;;21.80;58.50;;;;;;5007767;28;20033;-37
2021/05/27 11:42:27;;;;;;;1.38;0.30;;;21.80;58.40;;;;;;5009641;28;20042;-34
2021/05/27 11:45:00;;;;;;;0.65;0.52;;;21.90;58.30;;;;;;4666536;28;10000696;-36
2021/05/27 11:47:26;;;;;;;0.82;0.38;;;21.90;58.30;;;;;;5013544;28;20030;-35
2021/05/27 11:50:11;;;;;;;2.40;0.32;;;21.80;58.60;;;;;;5012078;28;20036;-35
2021/05/27 11:52:38;;;;;;;0.40;0.40;;;22.00;58.10;;;;;;5011049;28;20030;-35
2021/05/27 11:55:12;;;;;;;1.85;0.40;;;22.00;57.90;;;;;;5009808;28;20020;-39
2021/05/27 11:57:47;;;;;;;;;;;22.10;57.70;;;;;;5003244;28;20034;-35
2021/05/27 12:00:14;;;;;;;0.60;0.30;;;22.10;57.50;;;;;;5040430;28;19929;-35
2021/05/27 12:02:53;;;;;;;0.60;0.30;;;22.00;57.70;;;;;;5053087;28;20040;-35
2021/05/27 12:05:20;;;;;;;0.35;0.30;;;22.10;57.40;;;;;;5051698;28;20103;-35
2021/05/27 12:08:04;;;;;;;0.47;0.30;;;22.20;57.40;;;;;;5047253;28;20039;-35
2021/05/27 12:10:51;;;;;;;0.88;0.20;;;22.20;57.30;;;;;;5049765;28;20025;-35
2021/05/27 12:13:21;;;;;;;0.47;0.20;;;22.10;57.30;;;;;;5047619;28;20040;-35
2021/05/27 12:15:47;;;;;;;0.30;0.30;;;22.00;57.60;;;;;;5052016;28;20043;-35
2021/05/27 12:18:14;;;;;;;0.98;0.40;;;21.90;57.70;;;;;;5054958;28;20025;-34
2021/05/27 12:20:40;;;;;;;0.45;0.30;;;21.90;57.70;;;;;;5053741;28;20032;-34
2021/05/27 12:23:11;;;;;;;0.47;0.30;;;21.80;57.90;;;;;;5057204;28;20036;-35
2021/05/27 12:25:47;;;;;;;0.30;0.30;;;21.90;57.60;;;;;;5049013;28;20079;-35
2021/05/27 12:28:14;;;;;;;0.20;0.20;;;21.90;57.40;;;;;;5050791;28;20032;-35
2021/05/27 12:30:43;;;;;;;0.50;0.20;;;22.00;57.30;;;;;;5057825;28;20482;-35
2021/05/27 12:33:10;;;;;;;1.08;0.30;;;22.00;57.00;;;;;;5058148;28;20063;-35
2021/05/27 12:35:37;;;;;;;0.85;0.30;;;22.00;57.10;;;;;;5055056;28;20047;-34
2021/05/27 12:38:03;;;;;;;0.52;0.20;;;22.00;57.20;;;;;;5056830;28;20038;-35
2021/05/27 12:40:36;;;;;;;0.68;0.30;;;21.90;57.60;;;;;;5053277;28;20029;-36
2021/05/27 12:43:18;;;;;;;0.50;0.30;;;21.80;57.70;;;;;;5050948;28;20041;-35
2021/05/27 12:45:48;;;;;;;0.20;0.20;;;21.70;57.80;;;;;;5051983;28;20029;-35
2021/05/27 12:48:30;;;;;;;0.30;0.30;;;21.80;57.40;;;;;;5058474;28;20036;-35
2021/05/27 12:50:55;;;;;;;0.30;0.30;;;21.80;57.30;;;;;;5057763;28;20032;-35
2021/05/27 12:53:25;;;;;;;1.02;0.30;;;21.90;57.30;;;;;;5054034;28;20474;-35
2021/05/27 12:55:50;;;;;;;0.20;0.20;;;21.80;58.10;;;;;;5050165;28;20025;-35
2021/05/27 12:58:32;;;;;;;0.47;0.30;;;21.70;57.90;;;;;;5050337;28;20041;-35
2021/05/27 13:00:59;;;;;;;0.70;0.30;;;21.60;58.10;;;;;;5050135;28;20045;-35
2021/05/27 13:03:25;;;;;;;1.00;0.22;;;21.60;57.90;;;;;;5052642;28;20560;-35